Barbados Meteorological Services
Auto gathered TAF list
Powered by Apparatus software
For Flight AC1715
Contact Number 1-(246)-535-0021/2/3/4/5/6
WEB: http://www.barbadosweather.org

**********************************************

2018/05/24 12:39
TAF TXKF 241135Z 2412/2512 24015KT 9999 VCSH FEW013 SCT035 BKN050
TEMPO 2412/2415 4800 -SHRA FEW007 SCT013 OVC050 PROB40
TEMPO 2412/2415 3200 SHRA BKN013 PROB30
TEMPO 2412/2415 VRB20G30KT 1600 TSRA BKN007CB PROB40
TEMPO 2420/2424 3200 SHRA BKN012 PROB30
TEMPO 2420/2424 1600 TSRA BKN007CB
BECMG 2500/2503 30010KT 9999 VCSH FEW009 SCT015
BECMG 2506/2509 35006KT NSW
BECMG 2509/2512 04007KT


**********************************************
2018/05/24 12:18
TAF TLPL 241100Z 2412/2512 09016KT 9999 SCT025 PROB30
TEMPO 2500/2512 SHRA BKN040


**********************************************
2018/05/24 18:33
TAF TJSJ 241726Z 2418/2518 07016KT P6SM VCSH SCT025 SCT050
FM250000 09010KT P6SM VCSH SCT030
FM251400 07017KT P6SM SCT030


**********************************************
2018/05/24 18:07
TAF TFFR 241600Z 2418/2518 12012KT 9999 SCT028 BKN045
TEMPO 2418/2420 3000 SHRA BKN020TCU
BECMG 2422/2424 VRB03KT
TEMPO 2503/2518 4000 SHRA SCT020TCU
BECMG 2512/2514 09010KT


**********************************************
2018/05/24 18:39
TAF TBPB 241700Z 2418/2518 10019KT 9999 SCT020= TAF TVSA 241700Z 2418/2518 08014KT 9999 SCT020


**********************************************
2018/05/24 12:38
TAF TAPA 241100Z 2412/2512 10010KT 9999 SCT020 PROB30
TEMPO 2412/2416 SHRA PROB30
TEMPO 2501/2511 SHRA


**********************************************
2018/05/24 18:30
TAF KPHL 241726Z 2418/2524 34008KT P6SM SKC
FM242300 20007KT P6SM SKC
FM250300 23005KT P6SM SKC
FM251400 24008KT P6SM SKC
FM251900 24012KT P6SM FEW050


**********************************************
2018/05/24 18:34
TAF KORF 241734Z 2418/2518 02008KT P6SM SKC
FM242100 07007KT P6SM SKC
FM250000 12004KT P6SM SKC
FM250600 20006KT P6SM SKC


**********************************************
2018/05/24 18:35
TAF KJFK 241733Z 2418/2524 02010G17KT P6SM SKC
FM242000 22011KT P6SM SKC
FM242100 19011KT P6SM SKC
FM250300 20007KT P6SM SKC
FM250900 23005KT P6SM SKC
FM251400 23010KT P6SM SKC
FM251800 22016G25KT P6SM SKC


**********************************************
2018/05/24 18:22
TAF KIAD 241720Z 2418/2524 01006KT P6SM SKC
FM250000 VRB03KT P6SM SKC
FM251300 20004KT P6SM FEW250
FM251600 21008KT P6SM FEW050


**********************************************
2018/05/24 18:34
TAF KEWR 241733Z 2418/2524 34008KT P6SM SKC
FM242000 29008KT P6SM SKC
FM242200 26009KT P6SM SKC
FM250000 23008KT P6SM SKC
FM250800 VRB04KT P6SM SKC
FM251400 24009KT P6SM SKC
FM251700 24013G22KT P6SM SKC


**********************************************
2018/05/24 17:58
TAF
AMD KCHS 241654Z 2417/2512 20005KT 4SM TSRA BKN035CB
FM241800 15009KT P6SM VCSH SCT035 BKN250
FM250100 VRB03KT P6SM SCT025


**********************************************
2018/05/24 18:30
TAF KBOS 241725Z 2418/2524 10014KT P6SM SKC
FM242200 14010KT P6SM SKC
FM250000 18010KT P6SM SKC
FM250200 22011KT P6SM SKC
FM251500 25014G26KT P6SM FEW150


**********************************************
2018/05/24 15:40
TAF CYYZ 241438Z 2415/2518 14007KT P6SM SKC
BECMG 2422/2424 26010KT
FM251400 27015KT P6SM SCT070 BKN280
RMK NXT FCST BY 241800Z


**********************************************
2018/05/24 15:45
TAF TAF CYUL 241438Z 2415/2512 25006KT P6SM FEW150 SCT240
BECMG 2415/2417 23012G22KT
FM242000 23012G22KT P6SM SKC
FM250500 24015KT P6SM SKC
BECMG 2510/2512 24015G25KT
RMK NXT FCST BY 241800Z


**********************************************
2018/05/24 15:42
TAF CYOW 241438Z 2415/2512 VRB03KT P6SM FEW110
BECMG 2415/2417 25008KT
BECMG 2418/2420 22012G22KT
FM250200 22012KT P6SM SKC
BECMG 2510/2512 26015G25KT
RMK NXT FCST BY 241800Z


**********************************************
2018/05/24 12:42
TAF CYMX 241139Z 2412/2512 VRB03KT P6SM BKN090 BKN240
BECMG 2412/2414 27008KT
FM241500 27006KT P6SM SCT120 SCT240
FM242000 24010G20KT P6SM SKC
BECMG 2502/2504 24010KT
FM250400 24008KT WS005/25028KT P6SM SKC
BECMG 2510/2512 25010G20KT
RMK NXT FCST BY 241800Z


**********************************************